< < Back
Terminal Aerodrome Forecast


Current Version              Previous Versions:   1  2  3  4  5  6  7  8  9  

Terminal Aerodrome Forecast

303
FTUS42 KGSP 012300
TAFGSP
TAF
KGSP 012320Z 0200/0224 21003KT P6SM FEW060 SCT200
     FM021500 23006KT P6SM SCT060
     FM022100 23007KT P6SM SCT050 PROB30 0221/0224 TSRA BKN040CB=



Latest METAR

312
SAUS70 KWBC 021700 RRA
MTRGSP
METAR KGSP 021653Z 28004KT 10SM FEW120 32/23 A3007 RMK AO2 SLP168
T03220228


USA.gov is the U.S. government's official web portal to all federal, state and local government web resources and services.